createdAt,value
2018-05-11T00:00:49.952Z,0.00
2018-05-11T00:01:50.109Z,0.00
2018-05-11T00:02:50.262Z,0.00
2018-05-11T00:03:50.416Z,0.00
2018-05-11T00:04:50.569Z,0.00
2018-05-11T00:05:50.724Z,0.00
2018-05-11T00:06:50.875Z,0.00
2018-05-11T00:07:51.031Z,0.00
2018-05-11T00:08:51.184Z,0.00
2018-05-11T00:09:51.337Z,0.00
2018-05-11T00:10:51.491Z,0.00
2018-05-11T00:11:51.643Z,0.00
2018-05-11T00:12:51.793Z,0.00
2018-05-11T00:13:51.952Z,0.00
2018-05-11T00:14:52.102Z,0.00
2018-05-11T00:15:52.255Z,0.00
2018-05-11T00:16:52.409Z,0.00
2018-05-11T00:17:52.562Z,0.00
2018-05-11T00:18:52.711Z,0.00
2018-05-11T00:19:52.863Z,0.00
2018-05-11T00:20:53.018Z,0.00
2018-05-11T00:21:53.171Z,0.00
2018-05-11T00:22:53.326Z,0.00
2018-05-11T00:23:53.476Z,0.00
2018-05-11T00:24:53.630Z,0.00
2018-05-11T00:25:53.780Z,0.00
2018-05-11T00:26:53.932Z,0.00
2018-05-11T00:27:54.088Z,0.00
2018-05-11T00:28:54.241Z,0.00
2018-05-11T00:29:54.397Z,0.00
2018-05-11T00:30:54.548Z,0.00
2018-05-11T00:31:54.699Z,0.00
2018-05-11T00:32:54.855Z,0.00
2018-05-11T00:33:55.007Z,0.00
2018-05-11T00:34:55.160Z,0.00
2018-05-11T00:35:55.311Z,0.00
2018-05-11T00:36:55.464Z,0.00
2018-05-11T00:37:55.616Z,0.00
2018-05-11T00:38:55.770Z,0.00
2018-05-11T00:39:55.925Z,0.00
2018-05-11T00:40:56.077Z,0.00
2018-05-11T00:41:56.226Z,0.00
2018-05-11T00:42:56.379Z,0.00
2018-05-11T00:43:56.532Z,0.00
2018-05-11T00:44:56.684Z,0.00
2018-05-11T00:45:56.838Z,0.00
2018-05-11T00:46:56.988Z,0.00
2018-05-11T00:47:57.144Z,0.00
2018-05-11T00:48:57.295Z,0.00
2018-05-11T00:49:57.448Z,0.00
2018-05-11T00:50:57.610Z,0.00
2018-05-11T00:51:57.756Z,0.00
2018-05-11T00:52:57.905Z,0.00
2018-05-11T00:53:58.064Z,0.00
2018-05-11T00:54:58.225Z,0.00
2018-05-11T00:55:58.392Z,0.00
2018-05-11T00:56:58.518Z,0.00
2018-05-11T00:57:58.670Z,0.00
2018-05-11T00:58:58.823Z,0.00
2018-05-11T00:59:58.977Z,0.00
2018-05-11T01:00:59.127Z,0.00
2018-05-11T01:01:59.282Z,0.00
2018-05-11T01:02:59.434Z,0.00
2018-05-11T01:03:59.586Z,0.00
2018-05-11T01:04:59.741Z,0.00
2018-05-11T01:05:59.893Z,0.00
2018-05-11T01:07:00.045Z,0.00
2018-05-11T01:08:00.199Z,0.00
2018-05-11T01:09:00.354Z,0.00
2018-05-11T01:10:00.503Z,0.00
2018-05-11T01:11:00.657Z,0.00
2018-05-11T01:12:00.810Z,0.00
2018-05-11T01:13:00.963Z,0.00
2018-05-11T01:14:01.115Z,0.00
2018-05-11T01:15:01.271Z,0.00
2018-05-11T01:16:01.425Z,0.00
2018-05-11T01:17:01.588Z,0.00
2018-05-11T01:18:01.728Z,0.00
2018-05-11T01:19:01.892Z,0.00
2018-05-11T01:20:02.032Z,0.00
2018-05-11T01:21:02.186Z,0.00
2018-05-11T01:22:02.336Z,0.00
2018-05-11T01:23:02.489Z,0.00
2018-05-11T01:24:02.643Z,0.00
2018-05-11T01:25:02.798Z,0.00
2018-05-11T01:26:02.947Z,0.00
2018-05-11T01:27:03.100Z,0.00
2018-05-11T01:28:03.255Z,0.00
2018-05-11T01:29:03.407Z,0.00
2018-05-11T01:30:03.560Z,0.00
2018-05-11T01:31:03.713Z,0.00
2018-05-11T01:32:03.866Z,0.00
2018-05-11T01:33:04.023Z,0.00
2018-05-11T01:34:04.179Z,0.00
2018-05-11T01:35:04.328Z,0.00
2018-05-11T01:36:04.519Z,0.00
2018-05-11T01:37:04.630Z,0.00
2018-05-11T01:38:04.784Z,0.00
2018-05-11T01:39:04.938Z,0.00
2018-05-11T01:40:05.090Z,0.00
2018-05-11T01:41:05.242Z,0.00
2018-05-11T01:42:05.393Z,0.00
2018-05-11T01:43:05.548Z,0.00
2018-05-11T01:44:05.704Z,0.00
2018-05-11T01:45:05.858Z,0.00
2018-05-11T01:46:06.008Z,0.00
2018-05-11T01:47:06.160Z,0.00
2018-05-11T01:48:06.314Z,0.00
2018-05-11T01:49:06.466Z,0.00
2018-05-11T01:50:06.622Z,0.00
2018-05-11T01:51:06.775Z,0.00
2018-05-11T01:52:06.926Z,0.00
2018-05-11T01:53:07.082Z,0.00
2018-05-11T01:54:07.239Z,0.00
2018-05-11T01:55:07.391Z,0.00
2018-05-11T01:56:07.547Z,0.00
2018-05-11T01:57:07.700Z,0.00
2018-05-11T01:58:07.854Z,0.00
2018-05-11T01:59:08.008Z,0.00
2018-05-11T02:00:08.170Z,0.00
2018-05-11T02:01:08.323Z,0.00
2018-05-11T02:02:08.476Z,0.00
2018-05-11T02:03:08.649Z,0.00
2018-05-11T02:04:08.788Z,0.00
2018-05-11T02:05:08.943Z,0.00
2018-05-11T02:06:09.095Z,0.00
2018-05-11T02:07:09.248Z,0.00
2018-05-11T02:08:09.400Z,0.00
2018-05-11T02:09:09.553Z,0.00
2018-05-11T02:10:09.708Z,0.00
2018-05-11T02:11:09.859Z,0.00
2018-05-11T02:12:10.013Z,0.00
2018-05-11T02:13:10.166Z,0.00
2018-05-11T02:14:10.319Z,0.00
2018-05-11T02:15:10.472Z,0.00
2018-05-11T02:16:10.624Z,0.00
2018-05-11T02:17:10.780Z,0.00
2018-05-11T02:18:10.929Z,0.00
2018-05-11T02:19:11.083Z,0.00
2018-05-11T02:20:11.235Z,0.00
2018-05-11T02:21:11.389Z,0.00
2018-05-11T02:22:11.540Z,0.00
2018-05-11T02:23:11.695Z,0.00
2018-05-11T02:24:11.848Z,0.00
2018-05-11T02:25:11.999Z,0.00
2018-05-11T02:26:12.154Z,0.00
2018-05-11T02:27:12.305Z,0.00
2018-05-11T02:28:12.457Z,0.00
2018-05-11T02:29:12.613Z,0.00
2018-05-11T02:30:12.764Z,0.00
2018-05-11T02:31:12.916Z,0.00
2018-05-11T02:32:13.069Z,0.00
2018-05-11T02:33:13.223Z,0.00
2018-05-11T02:34:13.381Z,0.00
2018-05-11T02:35:13.527Z,0.00
2018-05-11T02:36:13.680Z,0.00
2018-05-11T02:37:13.833Z,0.00
2018-05-11T02:38:13.989Z,0.00
2018-05-11T02:39:14.140Z,0.00
2018-05-11T02:40:14.293Z,0.00
2018-05-11T02:41:14.450Z,0.00
2018-05-11T02:42:14.599Z,0.00
2018-05-11T02:43:14.751Z,0.00
2018-05-11T02:44:14.905Z,0.00
2018-05-11T02:45:15.059Z,0.00
2018-05-11T02:46:15.211Z,0.00
2018-05-11T02:47:15.373Z,0.00
2018-05-11T02:48:15.520Z,0.00
2018-05-11T02:49:15.672Z,0.00
2018-05-11T02:50:15.825Z,0.00
2018-05-11T02:51:15.977Z,0.00
2018-05-11T02:52:16.133Z,0.00
2018-05-11T02:53:16.285Z,0.00
2018-05-11T02:54:16.439Z,0.00
2018-05-11T02:55:16.592Z,0.00
2018-05-11T02:56:16.744Z,0.00
2018-05-11T02:57:16.896Z,0.00
2018-05-11T02:58:17.049Z,0.00
2018-05-11T02:59:17.204Z,0.00
2018-05-11T03:00:17.355Z,0.00
2018-05-11T03:01:17.506Z,0.00
2018-05-11T03:02:17.659Z,0.00
2018-05-11T03:03:17.812Z,0.00
2018-05-11T03:04:17.972Z,0.00
2018-05-11T03:05:18.118Z,0.00
2018-05-11T03:06:18.292Z,0.00
2018-05-11T03:07:18.444Z,4.00
2018-05-11T03:08:18.600Z,4.00
2018-05-11T03:09:18.749Z,4.00
2018-05-11T03:10:18.901Z,0.00
2018-05-11T03:11:19.054Z,0.00
2018-05-11T03:12:19.208Z,4.00
2018-05-11T03:13:19.360Z,4.00
2018-05-11T03:14:19.514Z,4.00
2018-05-11T03:15:19.667Z,8.00
2018-05-11T03:16:19.819Z,4.00
2018-05-11T03:17:19.998Z,8.00
2018-05-11T03:18:20.129Z,8.00
2018-05-11T03:19:20.277Z,8.00
2018-05-11T03:20:20.432Z,12.00
2018-05-11T03:21:20.585Z,16.00
2018-05-11T03:22:20.739Z,16.00
2018-05-11T03:23:20.889Z,16.00
2018-05-11T03:24:21.045Z,20.00
2018-05-11T03:25:21.196Z,24.00
2018-05-11T03:26:21.347Z,32.00
2018-05-11T03:27:21.505Z,32.00
2018-05-11T03:28:21.654Z,36.00
2018-05-11T03:29:21.806Z,40.00
2018-05-11T03:30:21.959Z,48.00
2018-05-11T03:31:22.111Z,52.00
2018-05-11T03:32:22.264Z,60.00
2018-05-11T03:33:22.417Z,68.00
2018-05-11T03:34:22.579Z,72.00
2018-05-11T03:35:22.722Z,76.00
2018-05-11T03:36:22.885Z,84.00
2018-05-11T03:37:23.026Z,92.00
2018-05-11T03:38:23.181Z,96.00
2018-05-11T03:39:23.332Z,100.00
2018-05-11T03:40:23.487Z,112.00
2018-05-11T03:41:23.635Z,128.00
2018-05-11T03:42:23.788Z,136.00
2018-05-11T03:43:23.942Z,144.00
2018-05-11T03:44:24.096Z,160.00
2018-05-11T03:45:24.304Z,164.00
2018-05-11T03:46:24.398Z,168.00
2018-05-11T03:47:24.552Z,168.00
2018-05-11T03:48:24.703Z,180.00
2018-05-11T03:49:24.857Z,192.00
2018-05-11T03:50:25.013Z,212.00
2018-05-11T03:51:25.164Z,236.00
2018-05-11T03:52:25.316Z,260.00
2018-05-11T03:53:25.470Z,280.00
2018-05-11T03:54:25.620Z,304.00
2018-05-11T03:55:25.775Z,328.00
2018-05-11T03:56:25.926Z,344.00
2018-05-11T03:57:26.086Z,364.00
2018-05-11T03:58:26.235Z,380.00
2018-05-11T03:59:26.389Z,392.00
2018-05-11T04:00:26.543Z,408.00
2018-05-11T04:01:26.695Z,408.00
2018-05-11T04:02:26.847Z,412.00
2018-05-11T04:03:27.006Z,408.00
2018-05-11T04:04:27.155Z,400.00
2018-05-11T04:05:27.307Z,400.00
2018-05-11T04:06:27.459Z,400.00
2018-05-11T04:07:27.612Z,408.00
2018-05-11T04:08:27.767Z,416.00
2018-05-11T04:09:27.916Z,424.00
2018-05-11T04:10:28.068Z,440.00
2018-05-11T04:11:28.224Z,472.00
2018-05-11T04:12:28.375Z,500.00
2018-05-11T04:13:28.537Z,536.00
2018-05-11T04:14:28.742Z,584.00
2018-05-11T04:15:28.832Z,620.00
2018-05-11T04:16:28.983Z,628.00
2018-05-11T04:17:29.138Z,648.00
2018-05-11T04:18:29.302Z,680.00
2018-05-11T04:19:29.448Z,724.00
2018-05-11T04:20:29.601Z,776.00
2018-05-11T04:21:29.753Z,820.00
2018-05-11T04:22:29.907Z,876.00
2018-05-11T04:23:30.062Z,972.00
2018-05-11T04:24:30.215Z,1056.00
2018-05-11T04:25:30.370Z,1128.00
2018-05-11T04:26:30.524Z,1196.00
2018-05-11T04:27:30.680Z,1252.00
2018-05-11T04:28:30.831Z,1292.00
2018-05-11T04:29:30.981Z,1312.00
2018-05-11T04:30:31.138Z,1332.00
2018-05-11T04:31:31.291Z,1340.00
2018-05-11T04:32:31.443Z,1320.00
2018-05-11T04:33:31.595Z,1280.00
2018-05-11T04:34:31.748Z,1248.00
2018-05-11T04:35:31.901Z,1244.00
2018-05-11T04:36:32.054Z,1256.00
2018-05-11T04:37:32.204Z,1284.00
2018-05-11T04:38:32.360Z,1308.00
2018-05-11T04:39:32.511Z,1368.00
2018-05-11T04:40:32.669Z,1392.00
2018-05-11T04:41:32.816Z,1376.00
2018-05-11T04:42:32.968Z,1384.00
2018-05-11T04:43:33.123Z,1412.00
2018-05-11T04:44:33.318Z,1440.00
2018-05-11T04:45:33.428Z,1452.00
2018-05-11T04:46:33.591Z,1432.00
2018-05-11T04:47:33.743Z,1480.00
2018-05-11T04:48:33.898Z,1596.00
2018-05-11T04:49:34.051Z,1696.00
2018-05-11T04:50:34.219Z,1700.00
2018-05-11T04:51:34.357Z,1660.00
2018-05-11T04:52:34.510Z,1660.00
2018-05-11T04:53:34.663Z,1668.00
2018-05-11T04:54:34.816Z,1664.00
2018-05-11T04:55:34.970Z,1672.00
2018-05-11T04:56:35.124Z,1688.00
2018-05-11T04:57:35.279Z,1808.00
2018-05-11T04:58:35.431Z,1948.00
2018-05-11T04:59:35.588Z,1992.00
2018-05-11T05:00:35.737Z,2072.00
2018-05-11T05:01:35.890Z,2156.00
2018-05-11T05:02:36.046Z,2216.00
2018-05-11T05:03:36.197Z,2228.00
2018-05-11T05:04:36.350Z,2252.00
2018-05-11T05:05:36.503Z,2268.00
2018-05-11T05:06:36.656Z,2396.00
2018-05-11T05:07:36.809Z,2516.00
2018-05-11T05:08:36.964Z,2620.00
2018-05-11T05:09:37.117Z,2772.00
2018-05-11T05:10:37.269Z,2952.00
2018-05-11T05:11:37.426Z,3076.00
2018-05-11T05:12:37.577Z,3240.00
2018-05-11T05:13:37.732Z,3324.00
2018-05-11T05:14:37.886Z,3372.00
2018-05-11T05:15:38.041Z,3364.00
2018-05-11T05:16:38.193Z,3352.00
2018-05-11T05:17:38.349Z,3360.00
2018-05-11T05:18:38.508Z,3336.00
2018-05-11T05:19:38.657Z,3284.00
2018-05-11T05:20:38.811Z,3232.00
2018-05-11T05:21:38.965Z,3144.00
2018-05-11T05:22:39.119Z,3052.00
2018-05-11T05:23:39.270Z,2908.00
2018-05-11T05:24:39.423Z,2768.00
2018-05-11T05:25:39.577Z,2724.00
2018-05-11T05:26:39.729Z,2756.00
2018-05-11T05:27:39.887Z,2824.00
2018-05-11T05:28:40.039Z,2924.00
2018-05-11T05:29:40.193Z,3000.00
2018-05-11T05:30:40.347Z,3104.00
2018-05-11T05:31:40.505Z,3260.00
2018-05-11T05:32:40.657Z,3492.00
2018-05-11T05:33:40.807Z,3512.00
2018-05-11T05:34:40.961Z,3384.00
2018-05-11T05:35:41.119Z,3276.00
2018-05-11T05:36:41.270Z,3280.00
2018-05-11T05:37:41.421Z,3380.00
2018-05-11T05:38:41.573Z,3472.00
2018-05-11T05:39:41.732Z,3504.00
2018-05-11T05:40:41.886Z,3552.00
2018-05-11T05:41:42.038Z,3716.00
2018-05-11T05:42:42.194Z,3996.00
2018-05-11T05:43:42.344Z,4416.00
2018-05-11T05:44:42.497Z,4736.00
2018-05-11T05:45:42.650Z,4964.00
2018-05-11T05:46:42.804Z,4900.00
2018-05-11T05:47:42.957Z,4816.00
2018-05-11T05:48:43.116Z,4588.00
2018-05-11T05:49:43.264Z,4428.00
2018-05-11T05:50:43.419Z,4436.00
2018-05-11T05:51:43.575Z,4520.00
2018-05-11T05:52:43.726Z,4600.00
2018-05-11T05:53:43.879Z,4616.00
2018-05-11T05:54:44.032Z,4600.00
2018-05-11T05:55:44.186Z,4576.00
2018-05-11T05:56:44.343Z,4572.00
2018-05-11T05:57:44.497Z,4600.00
2018-05-11T05:58:44.650Z,4672.00
2018-05-11T05:59:44.805Z,4804.00
2018-05-11T06:00:44.956Z,5036.00
2018-05-11T06:01:45.110Z,5348.00
2018-05-11T06:02:45.262Z,5564.00
2018-05-11T06:03:45.416Z,5656.00
2018-05-11T06:04:45.572Z,5716.00
2018-05-11T06:05:45.725Z,5688.00
2018-05-11T06:06:45.878Z,5672.00
2018-05-11T06:07:46.036Z,5740.00
2018-05-11T06:08:46.186Z,5880.00
2018-05-11T06:09:46.339Z,6032.00
2018-05-11T06:10:46.540Z,6264.00
2018-05-11T06:11:46.649Z,6440.00
2018-05-11T06:12:46.801Z,6736.00
2018-05-11T06:13:46.957Z,7068.00
2018-05-11T06:14:47.110Z,7344.00
2018-05-11T06:15:47.265Z,7760.00
2018-05-11T06:16:47.419Z,7976.00
2018-05-11T06:17:47.663Z,7800.00
2018-05-11T06:18:47.725Z,7464.00
2018-05-11T06:19:47.880Z,6948.00
2018-05-11T06:20:48.112Z,6528.00
2018-05-11T06:21:48.191Z,6232.00
2018-05-11T06:22:48.344Z,6132.00
2018-05-11T06:23:48.500Z,6240.00
2018-05-11T06:24:48.743Z,6356.00
2018-05-11T06:25:48.810Z,6304.00
2018-05-11T06:26:48.963Z,6176.00
2018-05-11T06:27:49.118Z,6232.00
2018-05-11T06:28:49.272Z,6436.00
2018-05-11T06:29:49.426Z,6680.00
2018-05-11T06:30:49.580Z,6920.00
2018-05-11T06:31:49.735Z,7056.00
2018-05-11T06:32:49.887Z,6912.00
2018-05-11T06:33:50.045Z,6868.00
2018-05-11T06:34:50.200Z,7044.00
2018-05-11T06:35:50.355Z,7324.00
2018-05-11T06:36:50.509Z,7456.00
2018-05-11T06:37:50.671Z,7484.00
2018-05-11T06:38:50.820Z,7540.00
2018-05-11T06:39:50.973Z,8212.00
2018-05-11T06:40:51.127Z,8196.00
2018-05-11T06:41:51.285Z,7728.00
2018-05-11T06:42:51.441Z,7536.00
2018-05-11T06:43:51.596Z,7688.00
2018-05-11T06:44:51.750Z,8120.00
2018-05-11T06:45:51.908Z,8064.00
2018-05-11T06:46:52.063Z,8140.00
2018-05-11T06:47:52.220Z,8628.00
2018-05-11T06:48:52.372Z,8796.00
2018-05-11T06:49:52.527Z,8704.00
2018-05-11T06:50:52.683Z,8596.00
2018-05-11T06:51:52.840Z,8024.00
2018-05-11T06:52:52.995Z,8292.00
2018-05-11T06:53:53.149Z,8328.00
2018-05-11T06:54:53.306Z,8116.00
2018-05-11T06:55:53.493Z,7924.00
2018-05-11T06:56:53.616Z,7804.00
2018-05-11T06:57:53.771Z,7716.00
2018-05-11T06:58:53.929Z,7820.00
2018-05-11T06:59:54.085Z,7700.00
2018-05-11T07:00:54.241Z,7132.00
2018-05-11T07:01:54.395Z,6968.00
2018-05-11T07:02:54.553Z,7172.00
2018-05-11T07:03:54.708Z,7528.00
2018-05-11T07:04:54.864Z,7564.00
2018-05-11T07:05:55.023Z,7740.00
2018-05-11T07:06:55.180Z,8168.00
2018-05-11T07:07:55.383Z,8424.00
2018-05-11T07:08:55.492Z,8948.00
2018-05-11T07:09:55.651Z,9320.00
2018-05-11T07:10:55.808Z,9444.00
2018-05-11T07:11:55.964Z,9304.00
2018-05-11T07:12:56.119Z,9036.00
2018-05-11T07:13:56.281Z,8764.00
2018-05-11T07:14:56.433Z,8516.00
2018-05-11T07:15:56.588Z,8312.00
2018-05-11T07:16:56.744Z,8300.00
2018-05-11T07:17:56.898Z,8440.00
2018-05-11T07:18:57.055Z,8720.00
2018-05-11T07:19:57.210Z,8808.00
2018-05-11T07:20:57.373Z,8724.00
2018-05-11T07:21:57.523Z,8640.00
2018-05-11T07:22:57.683Z,8592.00
2018-05-11T07:23:57.837Z,8548.00
2018-05-11T07:24:57.993Z,8608.00
2018-05-11T07:25:58.149Z,8812.00
2018-05-11T07:26:58.305Z,9016.00
2018-05-11T07:27:58.474Z,9140.00
2018-05-11T07:28:58.654Z,9264.00
2018-05-11T07:29:58.787Z,9268.00
2018-05-11T07:30:58.939Z,9212.00
2018-05-11T07:31:59.097Z,9128.00
2018-05-11T07:32:59.263Z,9000.00
2018-05-11T07:33:59.411Z,8912.00
2018-05-11T07:34:59.600Z,8868.00
2018-05-11T07:35:59.731Z,8816.00
2018-05-11T07:36:59.893Z,8740.00
2018-05-11T07:38:00.045Z,8680.00
2018-05-11T07:39:00.202Z,8644.00
2018-05-11T07:40:00.358Z,8664.00
2018-05-11T07:41:00.518Z,8712.00
2018-05-11T07:42:00.807Z,8680.00
2018-05-11T07:43:00.981Z,8552.00
2018-05-11T07:44:01.041Z,8428.00
2018-05-11T07:45:01.199Z,8104.00
2018-05-11T07:46:01.355Z,7844.00
2018-05-11T07:47:01.512Z,7612.00
2018-05-11T07:48:01.669Z,7368.00
2018-05-11T07:49:01.827Z,7164.00
2018-05-11T07:50:01.984Z,6676.00
2018-05-11T07:51:02.144Z,5984.00
2018-05-11T07:52:02.298Z,5872.00
2018-05-11T07:53:02.458Z,5848.00
2018-05-11T07:54:02.613Z,5864.00
2018-05-11T07:55:02.769Z,5840.00
2018-05-11T07:56:02.925Z,5840.00
2018-05-11T07:57:03.083Z,5876.00
2018-05-11T07:58:03.240Z,5912.00
2018-05-11T07:59:03.414Z,5952.00
2018-05-11T08:00:03.569Z,6016.00
2018-05-11T08:01:03.724Z,6080.00
2018-05-11T08:02:03.884Z,6132.00
2018-05-11T08:03:04.041Z,6104.00
2018-05-11T08:04:04.379Z,6112.00
2018-05-11T08:05:04.358Z,6140.00
2018-05-11T08:06:04.513Z,6260.00
2018-05-11T08:07:04.671Z,6480.00
2018-05-11T08:08:04.828Z,6760.00
2018-05-11T08:09:04.988Z,7088.00
2018-05-11T08:10:05.164Z,7408.00
2018-05-11T08:11:05.346Z,7736.00
2018-05-11T08:12:05.519Z,8092.00
2018-05-11T08:13:05.683Z,8540.00
2018-05-11T08:14:05.939Z,8584.00
2018-05-11T08:15:06.033Z,9300.00
2018-05-11T08:16:06.257Z,8720.00
2018-05-11T08:17:06.379Z,9236.00
2018-05-11T08:18:06.427Z,8528.00
2018-05-11T08:19:06.728Z,8288.00
2018-05-11T08:20:06.839Z,8120.00
2018-05-11T08:21:06.879Z,7980.00
2018-05-11T08:22:07.081Z,7852.00
2018-05-11T08:23:07.243Z,7716.00
2018-05-11T08:24:07.415Z,7616.00
2018-05-11T08:25:07.554Z,7536.00
2018-05-11T08:26:07.709Z,7400.00
2018-05-11T08:27:07.865Z,7312.00
2018-05-11T08:28:08.027Z,7344.00
2018-05-11T08:29:08.181Z,7528.00
2018-05-11T08:30:08.339Z,7784.00
2018-05-11T08:31:08.495Z,8068.00
2018-05-11T08:32:08.655Z,8328.00
2018-05-11T08:33:08.814Z,8592.00
2018-05-11T08:34:08.974Z,8484.00
2018-05-11T08:35:09.131Z,8640.00
2018-05-11T08:36:09.286Z,8808.00
2018-05-11T08:37:09.446Z,8884.00
2018-05-11T08:38:09.615Z,8956.00
2018-05-11T08:39:09.774Z,9048.00
2018-05-11T08:40:09.935Z,9204.00
2018-05-11T08:41:10.098Z,9132.00
2018-05-11T08:42:10.250Z,9132.00
2018-05-11T08:43:10.408Z,9204.00
2018-05-11T08:44:10.573Z,9832.00
2018-05-11T08:45:10.729Z,9980.00
2018-05-11T08:46:10.887Z,9780.00
2018-05-11T08:47:11.045Z,9380.00
2018-05-11T08:48:11.204Z,8872.00
2018-05-11T08:49:11.366Z,8516.00
2018-05-11T08:50:11.518Z,8992.00
2018-05-11T08:51:11.677Z,7820.00
2018-05-11T08:52:11.835Z,7852.00
2018-05-11T08:53:11.993Z,8208.00
2018-05-11T08:54:12.152Z,7872.00
2018-05-11T08:55:12.308Z,7220.00
2018-05-11T08:56:12.467Z,7096.00
2018-05-11T08:57:12.625Z,7308.00
2018-05-11T08:58:12.783Z,7276.00
2018-05-11T08:59:12.940Z,7512.00
2018-05-11T09:00:13.100Z,7580.00
2018-05-11T09:01:13.252Z,7568.00
2018-05-11T09:02:13.409Z,6932.00
2018-05-11T09:03:13.566Z,7232.00
2018-05-11T09:04:13.726Z,7516.00
2018-05-11T09:05:13.885Z,7512.00
2018-05-11T09:06:14.045Z,7020.00
2018-05-11T09:07:14.203Z,7364.00
2018-05-11T09:08:14.443Z,7180.00
2018-05-11T09:09:14.527Z,7068.00
2018-05-11T09:10:14.687Z,6756.00
2018-05-11T09:11:14.846Z,6892.00
2018-05-11T09:12:15.004Z,6700.00
2018-05-11T09:13:15.167Z,6860.00
2018-05-11T09:14:15.319Z,6976.00
2018-05-11T09:15:15.477Z,6920.00
2018-05-11T09:16:15.638Z,5744.00
2018-05-11T09:17:15.797Z,5708.00
2018-05-11T09:18:15.954Z,5724.00
2018-05-11T09:19:16.114Z,5776.00
2018-05-11T09:20:16.272Z,5764.00
2018-05-11T09:21:16.432Z,5736.00
2018-05-11T09:22:16.590Z,6416.00
2018-05-11T09:23:16.746Z,6660.00
2018-05-11T09:24:16.903Z,6772.00
2018-05-11T09:25:17.063Z,6748.00
2018-05-11T09:26:17.224Z,6764.00
2018-05-11T09:27:17.383Z,6452.00
2018-05-11T09:28:17.542Z,6848.00
2018-05-11T09:29:17.696Z,6952.00
2018-05-11T09:30:17.853Z,7160.00
2018-05-11T09:31:18.011Z,7360.00
2018-05-11T09:32:18.170Z,7636.00
2018-05-11T09:33:18.328Z,7976.00
2018-05-11T09:34:18.487Z,8212.00
2018-05-11T09:35:18.644Z,8240.00
2018-05-11T09:36:18.804Z,7972.00
2018-05-11T09:37:18.963Z,7704.00
2018-05-11T09:38:19.121Z,7168.00
2018-05-11T09:39:19.282Z,7412.00
2018-05-11T09:40:19.438Z,6688.00
2018-05-11T09:41:19.596Z,6788.00
2018-05-11T09:42:19.754Z,6660.00
2018-05-11T09:43:19.916Z,6640.00
2018-05-11T09:44:20.082Z,6576.00
2018-05-11T09:45:20.242Z,6364.00
2018-05-11T09:46:20.399Z,6196.00
2018-05-11T09:47:20.556Z,5960.00
2018-05-11T09:48:20.712Z,4756.00
2018-05-11T09:49:20.915Z,6112.00
2018-05-11T09:50:21.093Z,6232.00
2018-05-11T09:51:21.185Z,6348.00
2018-05-11T09:52:21.348Z,6352.00
2018-05-11T09:53:21.508Z,6328.00
2018-05-11T09:54:21.668Z,6316.00
2018-05-11T09:55:21.824Z,6284.00
2018-05-11T09:56:21.986Z,6316.00
2018-05-11T09:57:22.147Z,6300.00
2018-05-11T09:58:22.303Z,6236.00
2018-05-11T09:59:22.463Z,6252.00
2018-05-11T10:00:22.623Z,6184.00
2018-05-11T10:01:22.780Z,6152.00
2018-05-11T10:02:22.938Z,6132.00
2018-05-11T10:03:23.095Z,6092.00
2018-05-11T10:04:23.245Z,6028.00
2018-05-11T10:05:23.402Z,6012.00
2018-05-11T10:06:23.563Z,6056.00
2018-05-11T10:07:23.723Z,6092.00
2018-05-11T10:08:23.881Z,6196.00
2018-05-11T10:09:24.039Z,6264.00
2018-05-11T10:10:24.201Z,6336.00
2018-05-11T10:11:24.364Z,6392.00
2018-05-11T10:12:24.521Z,6380.00
2018-05-11T10:13:24.679Z,6336.00
2018-05-11T10:14:24.839Z,6344.00
2018-05-11T10:15:24.996Z,6416.00
2018-05-11T10:16:25.156Z,6476.00
2018-05-11T10:17:25.312Z,6452.00
2018-05-11T10:18:25.474Z,6420.00
2018-05-11T10:19:25.632Z,6292.00
2018-05-11T10:20:25.791Z,6464.00
2018-05-11T10:21:25.950Z,6500.00
2018-05-11T10:22:26.107Z,6564.00
2018-05-11T10:23:26.265Z,6720.00
2018-05-11T10:24:26.424Z,6692.00
2018-05-11T10:25:26.582Z,6824.00
2018-05-11T10:26:26.739Z,6908.00
2018-05-11T10:27:26.903Z,7140.00
2018-05-11T10:28:27.060Z,7316.00
2018-05-11T10:29:27.227Z,7396.00
2018-05-11T10:30:27.379Z,7392.00
2018-05-11T10:31:27.540Z,7244.00
2018-05-11T10:32:27.700Z,5256.00
2018-05-11T10:33:27.860Z,5152.00
2018-05-11T10:34:28.076Z,4920.00
2018-05-11T10:35:28.183Z,4772.00
2018-05-11T10:36:28.341Z,4708.00
2018-05-11T10:37:28.500Z,4900.00
2018-05-11T10:38:28.661Z,6716.00
2018-05-11T10:39:28.818Z,6772.00
2018-05-11T10:40:28.979Z,6816.00
2018-05-11T10:41:29.143Z,6764.00
2018-05-11T10:42:29.297Z,6800.00
2018-05-11T10:43:29.459Z,6872.00
2018-05-11T10:44:29.617Z,7140.00
2018-05-11T10:45:29.777Z,7268.00
2018-05-11T10:46:29.934Z,7360.00
2018-05-11T10:47:30.098Z,7384.00
2018-05-11T10:48:30.276Z,7420.00
2018-05-11T10:49:30.418Z,7484.00
2018-05-11T10:50:30.576Z,7452.00
2018-05-11T10:51:30.735Z,7364.00
2018-05-11T10:52:30.899Z,7264.00
2018-05-11T10:53:31.057Z,7192.00
2018-05-11T10:54:31.225Z,7144.00
2018-05-11T10:55:31.386Z,7024.00
2018-05-11T10:56:31.552Z,5612.00
2018-05-11T10:57:31.703Z,5436.00
2018-05-11T10:58:31.866Z,5344.00
2018-05-11T10:59:32.025Z,5448.00
2018-05-11T11:00:32.185Z,5528.00
2018-05-11T11:01:32.347Z,5536.00
2018-05-11T11:02:32.506Z,5668.00
2018-05-11T11:03:32.669Z,5748.00
2018-05-11T11:04:32.828Z,6052.00
2018-05-11T11:05:32.992Z,6312.00
2018-05-11T11:06:33.146Z,7872.00
2018-05-11T11:07:33.335Z,8036.00
2018-05-11T11:08:33.493Z,8636.00
2018-05-11T11:09:33.656Z,8776.00
2018-05-11T11:10:33.813Z,8880.00
2018-05-11T11:11:33.981Z,8828.00
2018-05-11T11:12:34.134Z,8816.00
2018-05-11T11:13:34.302Z,8884.00
2018-05-11T11:14:34.456Z,8924.00
2018-05-11T11:15:34.613Z,8992.00
2018-05-11T11:16:34.771Z,8980.00
2018-05-11T11:17:34.932Z,9012.00
2018-05-11T11:18:35.093Z,8992.00
2018-05-11T11:19:35.252Z,9060.00
2018-05-11T11:20:35.413Z,9124.00
2018-05-11T11:21:35.570Z,8952.00
2018-05-11T11:22:35.732Z,8880.00
2018-05-11T11:23:35.889Z,8988.00
2018-05-11T11:24:36.050Z,9280.00
2018-05-11T11:25:36.213Z,9404.00
2018-05-11T11:26:36.370Z,9464.00
2018-05-11T11:27:36.531Z,9432.00
2018-05-11T11:28:36.697Z,9280.00
2018-05-11T11:29:36.856Z,9300.00
2018-05-11T11:30:37.017Z,9520.00
2018-05-11T11:31:37.175Z,9900.00
2018-05-11T11:32:37.336Z,10196.00
2018-05-11T11:33:37.501Z,10304.00
2018-05-11T11:34:37.664Z,10260.00
2018-05-11T11:35:37.825Z,9708.00
2018-05-11T11:36:37.984Z,7768.00
2018-05-11T11:37:38.144Z,7528.00
2018-05-11T11:38:38.305Z,7456.00
2018-05-11T11:39:38.465Z,8080.00
2018-05-11T11:40:38.626Z,9272.00
2018-05-11T11:41:38.788Z,9224.00
2018-05-11T11:42:38.950Z,9116.00
2018-05-11T11:43:39.112Z,9080.00
2018-05-11T11:44:39.272Z,9164.00
2018-05-11T11:45:39.432Z,9224.00
2018-05-11T11:46:39.592Z,9112.00
2018-05-11T11:47:39.783Z,9004.00
2018-05-11T11:48:39.913Z,8908.00
2018-05-11T11:49:40.073Z,8860.00
2018-05-11T11:50:40.234Z,8892.00
2018-05-11T11:51:40.396Z,8928.00
2018-05-11T11:52:40.561Z,8920.00
2018-05-11T11:53:40.720Z,8840.00
2018-05-11T11:54:40.880Z,8776.00
2018-05-11T11:55:41.042Z,8800.00
2018-05-11T11:56:41.200Z,8908.00
2018-05-11T11:57:41.361Z,8884.00
2018-05-11T11:58:41.525Z,8940.00
2018-05-11T11:59:41.685Z,8580.00
2018-05-11T12:00:41.845Z,8576.00
2018-05-11T12:01:42.034Z,7072.00
2018-05-11T12:02:42.167Z,6928.00
2018-05-11T12:03:42.328Z,7132.00
2018-05-11T12:04:42.489Z,7012.00
2018-05-11T12:05:42.651Z,7164.00
2018-05-11T12:06:42.811Z,7700.00
2018-05-11T12:07:42.978Z,7024.00
2018-05-11T12:08:43.138Z,7396.00
2018-05-11T12:09:43.295Z,7096.00
2018-05-11T12:10:43.462Z,7056.00
2018-05-11T12:11:43.621Z,7184.00
2018-05-11T12:12:43.781Z,7400.00
2018-05-11T12:13:43.941Z,7868.00
2018-05-11T12:14:44.102Z,8840.00
2018-05-11T12:15:44.263Z,8960.00
2018-05-11T12:16:44.429Z,9432.00
2018-05-11T12:17:44.588Z,9608.00
2018-05-11T12:18:44.746Z,9980.00
2018-05-11T12:19:44.909Z,10584.00
2018-05-11T12:20:45.069Z,11716.00
2018-05-11T12:21:45.237Z,11292.00
2018-05-11T12:22:45.396Z,10640.00
2018-05-11T12:23:45.558Z,10756.00
2018-05-11T12:24:45.720Z,10260.00
2018-05-11T12:25:45.881Z,10604.00
2018-05-11T12:26:46.045Z,11128.00
2018-05-11T12:27:46.205Z,10472.00
2018-05-11T12:28:46.366Z,10536.00